virtualACA

Welcome To Vancouver International Airport CYVR

Hub Roster

Pilot Domicile Rank
Brian Kozushka - ACA1102CanadaChief Pilot
Jean-Michel Lazare - ACA2310FranceChief Pilot
Doug Fisher - ACA3285CanadaChief Pilot
Christian Parise - ACA3308CanadaNew Hire
Wil Barker - ACA3314United StatesNew Hire
Raphael Moll - ACA3325SwitzerlandNew Hire
Bernardo Aranda - ACA3330CanadaNew Hire
RAOUF RIZK - ACA3332SpainNew Hire

Current Vatsim Weather


CYVR 062200Z 29009KT 20SM FEW032TCU BKN058 18/11 A2992 RMK TCU1SC6 SH N SLP134 DENSITY ALT 500FT
Vancouver International Airport